• Join FlightAware (Why Join?)
  • Login
  • US Flag 
09:52AM EDT


 

Airport Tracker/Info


-or-


 

Live Flight TrackerFlight Track Log ✈ CPT8773 ✈ 24-Jul-2013 ✈ KCPR - KCOD

Flight Track Log - Related Links

Times and Time Zones

All times are in EDT time to prevent confusion due to time zone crossing. See the CPT8773 flight status page for this flight to view local times or setup timezone preferences in your user account.

Time Position Orientation Groundspeed Altitude Reporting Facility
EDT Latitude Longitude Course Direction KTS MPH feet Rate Location/Type
09:04AM 43.0181 -106.5247 36° Northeast 136 157 7,900  Level Salt Lake Center
09:05AM 43.0508 -106.5472 333° Northwest 137 158 8,400 540 Climbing Salt Lake Center
09:06AM 43.0900 -106.5722 335° Northwest 137 158 9,000 540 Climbing Salt Lake Center
09:07AM 42.9627 -106.3889 45° Northeast  Level FlightAware Approximate
09:07AM 43.1242 -106.5889 340° North 136 157 9,600  Level Salt Lake Center
09:08AM 42.9941 -106.3559 36° Northeast  Level FlightAware Approximate
09:08AM 43.1556 -106.6075 337° Northwest 134 154 10,100  Level Salt Lake Center
09:09AM 43.0255 -106.3245 36° Northeast  Level FlightAware Approximate
09:09AM 43.1950 -106.6325 335° Northwest 137 158 10,600  Level Salt Lake Center
09:10AM 43.2306 -106.6494 341° North 141 162 11,200 480 Climbing Salt Lake Center
09:11AM 43.2628 -106.6683 337° Northwest 135 155 11,600 360 Climbing Salt Lake Center
09:12AM 43.3036 -106.6894 339° North 137 158 12,000 180 Climbing Denver Center
09:13AM 43.3325 -106.7394 308° West 151 174 12,000  Level Denver Center
09:14AM 43.3564 -106.7878 304° West 159 183 12,000  Level Denver Center
09:15AM 43.3886 -106.8400 310° West 160 184 12,000  Level Denver Center
09:16AM 43.4156 -106.8839 310° West 157 181 12,000  Level Denver Center
09:17AM 43.4467 -106.9264 315° West 157 181 12,100  Climbing Denver Center
09:18AM 43.4814 -106.9661 320° Northwest 160 184 12,100 -60 Level Denver Center
09:19AM 43.5153 -107.0058 320° Northwest 160 184 12,000  Descending Denver Center
09:20AM 43.5519 -107.0400 326° Northwest 160 184 12,100  Climbing Denver Center
09:21AM 43.5892 -107.0736 327° Northwest 161 185 12,000 -120 Descending Denver Center
09:22AM 43.6008 -107.1328 285° West 158 182 11,900 -60 Descending Salt Lake Center
09:23AM 43.6053 -107.1975 275° West 167 192 11,900  Level Salt Lake Center
09:24AM 43.6142 -107.2592 281° West 166 191 11,900  Level Salt Lake Center
09:25AM 43.6314 -107.3164 293° West 164 189 11,900  Level Salt Lake Center
09:26AM 43.6594 -107.3644 309° West 162 186 12,000  Climbing Salt Lake Center
09:27AM 43.6858 -107.4139 306° West 161 185 12,000  Level Salt Lake Center
09:28AM 43.7133 -107.4636 307° West 162 186 12,000  Level Salt Lake Center
09:29AM 43.7386 -107.5153 304° West 162 186 12,000  Level Salt Lake Center
09:30AM 43.7653 -107.5633 308° West 161 185 12,000  Level Salt Lake Center
09:31AM 43.7911 -107.6144 305° West 161 185 12,000  Level Salt Lake Center
09:32AM 43.8225 -107.6756 305° West 161 185 12,000  Level Salt Lake Center
09:33AM 43.8483 -107.7264 305° West 162 186 12,000  Level Salt Lake Center
09:34AM 43.8747 -107.7767 306° West 162 186 12,000  Level Salt Lake Center
09:35AM 43.9003 -107.8267 305° West 161 185 12,000  Level Salt Lake Center
09:36AM 43.9261 -107.8781 305° West 161 185 12,000  Level Salt Lake Center
09:37AM 43.9525 -107.9294 306° West 162 186 12,000  Level Salt Lake Center
09:38AM 43.9792 -107.9797 306° West 163 188 12,000  Level Salt Lake Center
09:39AM 44.0097 -108.0278 311° West 164 189 12,000  Level Salt Lake Center
09:40AM 44.0361 -108.0767 307° West 163 188 12,000  Level Salt Lake Center
09:41AM 44.0689 -108.1378 307° West 162 186 12,000  Level Salt Lake Center
09:42AM 44.0958 -108.1900 306° West 164 189 12,000  Level Salt Lake Center
09:43AM 44.1214 -108.2422 304° West 164 189 12,000  Level Salt Lake Center
09:44AM 44.1483 -108.2928 307° West 164 189 12,000  Level Salt Lake Center
09:45AM 44.1744 -108.3442 305° West 163 188 12,000  Level Salt Lake Center
09:47AM 44.2014 -108.3958 306° West 163 188 12,000  Level Salt Lake Center
09:48AM 44.2275 -108.4467 306° West 163 188 12,000  Level Salt Lake Center
09:49AM 44.2533 -108.4986 305° West 163 188 12,000  Level Salt Lake Center
09:50AM 44.2792 -108.5500 305° West 162 186 12,000  Level Salt Lake Center
09:51AM 44.3106 -108.6111 306° West 162 186 12,000 -60 Level Salt Lake Center
09:52AM 44.3375 -108.6628 306° West 163 188 11,900 -480 Descending Salt Lake Center
09:53AM 44.3644 -108.7169 305° West 165 190 11,100 -780 Descending Salt Lake Center
09:54AM 44.3925 -108.7739 305° West 171 197 10,400 -720 Descending Salt Lake Center
09:55AM 44.4219 -108.8314 306° West 176 203 9,700 -720 Descending Salt Lake Center
09:56AM 44.4506 -108.8850 307° West 176 203 9,000 -900 Descending Salt Lake Center
09:57AM 44.4786 -108.9392 306° West 174 200 7,900 -1,080 Descending Salt Lake Center